Francisco Bangoy International Airport
RPMD : now visible

Airfield :











YOU CAN JOIN US ON...

 
LOGIN :

Register | Disclaimer

   EN    FR    IT 

 









Legend :    VFR   Marginal VFR   IFR   Intensive IFR   Very Intensive IFR
Visi :
Ceiling :
>= 8 km
>= 3000ft
5 to 8 km
1000 to 3000 ft
1500m to 5 km
500 to 1000 ft
800 to 1500m
200 to 500 ft
< 800m
< 200 ft
Symbols :   Thunderstorms  Fog  Heavy snow  Heavy precipitations  Wind > 20 kt






- Airport Elevation : 96 ft
- IATA code : DVO


RPMD - Francisco Bangoy International

CURRENT METAR :
  • 131200Z 03004KT 9999 FEW016 SCT090 BKN290 27/24 Q1010 RMK A2983

EXPIRED METARs :
  • 131100Z 00000KT 9999 SCT016 BKN090 BKN290 29/24 Q1009 RMK A2980
  • 131000Z 19008KT 9999 SCT016 BKN090 BKN290 29/23 Q1009 RMK A2980

TAF TAF RPMD
Valid from the 13 at 12:00 until the 14 at 12:00 UTC


131100Z 1312/1412 19006KT 9999 FEW016 SCT090 BKN290
TEMPO 1312/1318 35004KT FEW015CB BKN090



MET'MAP, your aeronautical weather chart ! - Copyright ORBIFLY December 2007 - Disclaimer

ORBIFLY MET'MAP TEAM :

Programming & Development : Alexandra Zaïnal
Concept & Development : Baudouin d'Aumeries
Co-Development & Prog : Marc-Olivier Méhu
Technical & hardware support : Manuel Goepfert

Contact : metmap@orbifly.com




SOURCES & CREDITS :

   NOAA       Earth
Advisory